sensor_id;sensor_type;location;lat;lon;timestamp;pressure;altitude;pressure_sealevel;temperature;humidity
42945;BME280;28584;42.636;23.294;2023-02-19T00:01:37;160079.88;;;5.73;100.00
42945;BME280;28584;42.636;23.294;2023-02-19T00:04:06;160121.19;;;5.89;99.82
42945;BME280;28584;42.636;23.294;2023-02-19T00:06:33;160158.47;;;6.03;96.82
42945;BME280;28584;42.636;23.294;2023-02-19T00:08:59;160175.75;;;6.09;96.34
42945;BME280;28584;42.636;23.294;2023-02-19T00:11:27;160141.13;;;5.96;97.09
42945;BME280;28584;42.636;23.294;2023-02-19T00:13:54;160127.84;;;5.91;100.00
42945;BME280;28584;42.636;23.294;2023-02-19T00:16:27;160163.75;;;6.05;95.19
42945;BME280;28584;42.636;23.294;2023-02-19T00:18:54;160161.09;;;6.04;96.02
42945;BME280;28584;42.636;23.294;2023-02-19T00:21:20;160107.84;;;5.84;100.00
42945;BME280;28584;42.636;23.294;2023-02-19T00:23:54;160121.19;;;5.89;98.85
42945;BME280;28584;42.636;23.294;2023-02-19T00:26:20;160086.53;;;5.75;100.00
42945;BME280;28584;42.636;23.294;2023-02-19T00:28:49;160059.91;;;5.65;100.00
42945;BME280;28584;42.636;23.294;2023-02-19T00:33:47;160135.81;;;5.94;99.00
42945;BME280;28584;42.636;23.294;2023-02-19T00:36:14;160155.81;;;6.02;97.42
42945;BME280;28584;42.636;23.294;2023-02-19T00:38:40;160166.44;;;6.06;95.13
42945;BME280;28584;42.636;23.294;2023-02-19T00:41:07;160115.84;;;5.87;97.67
42945;BME280;28584;42.636;23.294;2023-02-19T00:44:01;160057.25;;;5.64;100.00
42945;BME280;28584;42.636;23.294;2023-02-19T00:46:29;160013.34;;;5.48;100.00
42945;BME280;28584;42.636;23.294;2023-02-19T00:48:55;160001.38;;;5.43;100.00
42945;BME280;28584;42.636;23.294;2023-02-19T00:51:23;159982.75;;;5.36;100.00
42945;BME280;28584;42.636;23.294;2023-02-19T00:53:49;159950.78;;;5.24;100.00
42945;BME280;28584;42.636;23.294;2023-02-19T00:56:16;160033.28;;;5.55;100.00
42945;BME280;28584;42.636;23.294;2023-02-19T00:58:41;160082.53;;;5.74;100.00
42945;BME280;28584;42.636;23.294;2023-02-19T01:01:07;160129.19;;;5.92;100.00
42945;BME280;28584;42.636;23.294;2023-02-19T01:03:33;160206.38;;;6.21;96.22
42945;BME280;28584;42.636;23.294;2023-02-19T01:05:59;160278.28;;;6.48;89.75
42945;BME280;28584;42.636;23.294;2023-02-19T01:08:25;160331.56;;;6.68;84.78
42945;BME280;28584;42.636;23.294;2023-02-19T01:10:51;160326.22;;;6.66;86.59
42945;BME280;28584;42.636;23.294;2023-02-19T01:13:17;160306.22;;;6.58;87.61
42945;BME280;28584;42.636;23.294;2023-02-19T01:15:43;160631.34;;;7.80;73.80
42945;BME280;28584;42.636;23.294;2023-02-19T01:18:09;161215.78;;;10.00;60.39
42945;BME280;28584;42.636;23.294;2023-02-19T01:20:37;161529.75;;;11.17;54.30
42945;BME280;28584;42.636;23.294;2023-02-19T01:23:03;161353.38;;;10.51;55.00
42945;BME280;28584;42.636;23.294;2023-02-19T01:25:29;160907.44;;;8.84;57.90
42945;BME280;28584;42.636;23.294;2023-02-19T01:27:54;160836.75;;;8.58;60.17
42945;BME280;28584;42.636;23.294;2023-02-19T01:30:20;160482.03;;;7.24;62.73
42945;BME280;28584;42.636;23.294;2023-02-19T01:32:45;160386.16;;;6.88;69.09
42945;BME280;28584;42.636;23.294;2023-02-19T01:35:10;160118.53;;;5.88;85.52
42945;BME280;28584;42.636;23.294;2023-02-19T01:37:36;160121.19;;;5.89;94.43
42945;BME280;28584;42.636;23.294;2023-02-19T01:40:01;160078.53;;;5.72;95.42
42945;BME280;28584;42.636;23.294;2023-02-19T01:42:27;160033.28;;;5.55;100.00
42945;BME280;28584;42.636;23.294;2023-02-19T01:45:15;159980.09;;;5.35;100.00
42945;BME280;28584;42.636;23.294;2023-02-19T01:47:44;159980.09;;;5.35;100.00
42945;BME280;28584;42.636;23.294;2023-02-19T01:50:10;160024.00;;;5.52;100.00
42945;BME280;28584;42.636;23.294;2023-02-19T01:52:35;160017.34;;;5.49;100.00
42945;BME280;28584;42.636;23.294;2023-02-19T01:55:04;160014.66;;;5.48;100.00
42945;BME280;28584;42.636;23.294;2023-02-19T01:57:35;159966.78;;;5.30;100.00
42945;BME280;28584;42.636;23.294;2023-02-19T02:00:12;159969.41;;;5.31;100.00
42945;BME280;28584;42.636;23.294;2023-02-19T02:02:40;159937.50;;;5.19;100.00
42945;BME280;28584;42.636;23.294;2023-02-19T02:05:09;159936.16;;;5.19;100.00
42945;BME280;28584;42.636;23.294;2023-02-19T02:07:35;159921.53;;;5.13;100.00
42945;BME280;28584;42.636;23.294;2023-02-19T02:10:20;159920.25;;;5.13;100.00
42945;BME280;28584;42.636;23.294;2023-02-19T02:12:46;159896.28;;;5.04;100.00
42945;BME280;28584;42.636;23.294;2023-02-19T02:15:12;159961.44;;;5.28;100.00
42945;BME280;28584;42.636;23.294;2023-02-19T02:21:28;160550.00;;;7.50;70.80
42945;BME280;28584;42.636;23.294;2023-02-19T02:24:05;160542.00;;;7.47;68.23
42945;BME280;28584;42.636;23.294;2023-02-19T02:29:49;160344.84;;;6.73;75.92
42945;BME280;28584;42.636;23.294;2023-02-19T02:32:20;160363.50;;;6.80;76.16
42945;BME280;28584;42.636;23.294;2023-02-19T02:35:09;160272.94;;;6.46;80.89
42945;BME280;28584;42.636;23.294;2023-02-19T02:37:38;160222.34;;;6.27;85.26
42945;BME280;28584;42.636;23.294;2023-02-19T02:40:06;160225.00;;;6.28;86.35
42945;BME280;28584;42.636;23.294;2023-02-19T02:42:33;160195.72;;;6.17;89.37
42945;BME280;28584;42.636;23.294;2023-02-19T02:45:22;160186.38;;;6.13;89.84
42945;BME280;28584;42.636;23.294;2023-02-19T02:53:48;160022.66;;;5.51;100.00
42945;BME280;28584;42.636;23.294;2023-02-19T02:56:35;160114.53;;;5.86;95.80
42945;BME280;28584;42.636;23.294;2023-02-19T02:59:03;160314.22;;;6.61;86.35
42945;BME280;28584;42.636;23.294;2023-02-19T03:01:52;160451.44;;;7.13;74.97
42945;BME280;28584;42.636;23.294;2023-02-19T03:08:14;160888.75;;;8.77;60.67
42945;BME280;28584;42.636;23.294;2023-02-19T03:13:19;160891.41;;;8.78;60.71
42945;BME280;28584;42.636;23.294;2023-02-19T03:16:09;161165.00;;;9.81;56.72
42945;BME280;28584;42.636;23.294;2023-02-19T03:18:58;161334.66;;;10.44;54.28
42945;BME280;28584;42.636;23.294;2023-02-19T03:21:46;161333.38;;;10.44;53.52
42945;BME280;28584;42.636;23.294;2023-02-19T03:24:14;161393.50;;;10.66;52.51
42945;BME280;28584;42.636;23.294;2023-02-19T03:27:02;161380.09;;;10.61;52.63
42945;BME280;28584;42.636;23.294;2023-02-19T03:29:30;161385.47;;;10.63;52.31
42945;BME280;28584;42.636;23.294;2023-02-19T03:32:01;161432.19;;;10.81;52.23
42945;BME280;28584;42.636;23.294;2023-02-19T03:34:51;161452.25;;;10.88;51.68
42945;BME280;28584;42.636;23.294;2023-02-19T03:37:20;161429.53;;;10.80;51.84
42945;BME280;28584;42.636;23.294;2023-02-19T03:39:50;161412.19;;;10.73;51.95
42945;BME280;28584;42.636;23.294;2023-02-19T03:42:41;161409.47;;;10.72;51.90
42945;BME280;28584;42.636;23.294;2023-02-19T03:45:24;161429.53;;;10.80;51.70
42945;BME280;28584;42.636;23.294;2023-02-19T03:50:50;161425.53;;;10.78;51.80
42945;BME280;28584;42.636;23.294;2023-02-19T03:58:43;161436.22;;;10.82;52.12
42945;BME280;28584;42.636;23.294;2023-02-19T04:01:20;161417.50;;;10.75;52.20
42945;BME280;28584;42.636;23.294;2023-02-19T04:03:58;161409.47;;;10.72;52.40
42945;BME280;28584;42.636;23.294;2023-02-19T04:06:29;161386.75;;;10.64;52.78
42945;BME280;28584;42.636;23.294;2023-02-19T04:08:59;161167.72;;;9.82;54.20
42945;BME280;28584;42.636;23.294;2023-02-19T04:11:27;160891.41;;;8.78;56.50
42945;BME280;28584;42.636;23.294;2023-02-19T04:14:26;160725.97;;;8.16;58.72
42945;BME280;28584;42.636;23.294;2023-02-19T04:16:58;160579.38;;;7.61;60.82
42945;BME280;28584;42.636;23.294;2023-02-19T04:19:26;160484.75;;;7.25;62.34
42945;BME280;28584;42.636;23.294;2023-02-19T04:21:53;160446.09;;;7.11;64.37
42945;BME280;28584;42.636;23.294;2023-02-19T04:24:39;160578.03;;;7.60;65.24
42945;BME280;28584;42.636;23.294;2023-02-19T04:27:07;160691.34;;;8.03;61.99
42945;BME280;28584;42.636;23.294;2023-02-19T04:29:33;160514.06;;;7.36;63.98
42945;BME280;28584;42.636;23.294;2023-02-19T04:31:59;160399.50;;;6.93;67.47
42945;BME280;28584;42.636;23.294;2023-02-19T04:34:25;160526.06;;;7.41;68.87
42945;BME280;28584;42.636;23.294;2023-02-19T04:36:50;160630.00;;;7.80;65.02
42945;BME280;28584;42.636;23.294;2023-02-19T04:39:21;160614.00;;;7.74;66.20
42945;BME280;28584;42.636;23.294;2023-02-19T04:41:47;160915.44;;;8.87;63.08
42945;BME280;28584;42.636;23.294;2023-02-19T04:44:12;161054.22;;;9.39;60.25
42945;BME280;28584;42.636;23.294;2023-02-19T04:46:39;161150.31;;;9.75;58.34
42945;BME280;28584;42.636;23.294;2023-02-19T04:49:05;161166.34;;;9.81;57.89
42945;BME280;28584;42.636;23.294;2023-02-19T04:51:30;161237.16;;;10.08;57.77
42945;BME280;28584;42.636;23.294;2023-02-19T04:53:55;161261.22;;;10.17;57.17
42945;BME280;28584;42.636;23.294;2023-02-19T04:56:21;161241.19;;;10.09;56.96
42945;BME280;28584;42.636;23.294;2023-02-19T04:58:46;161198.44;;;9.93;56.95
42945;BME280;28584;42.636;23.294;2023-02-19T05:01:12;161214.41;;;9.99;56.91
42945;BME280;28584;42.636;23.294;2023-02-19T05:03:37;161234.53;;;10.07;56.55
42945;BME280;28584;42.636;23.294;2023-02-19T05:06:04;161209.09;;;9.97;56.71
42945;BME280;28584;42.636;23.294;2023-02-19T05:08:30;161230.47;;;10.05;57.08
42945;BME280;28584;42.636;23.294;2023-02-19T05:10:59;161215.78;;;10.00;57.14
42945;BME280;28584;42.636;23.294;2023-02-19T05:13:25;161193.06;;;9.91;56.96
42945;BME280;28584;42.636;23.294;2023-02-19T05:15:59;161201.09;;;9.94;57.08
42945;BME280;28584;42.636;23.294;2023-02-19T05:18:25;161194.41;;;9.92;57.84
42945;BME280;28584;42.636;23.294;2023-02-19T05:20:51;161195.72;;;9.92;58.38
42945;BME280;28584;42.636;23.294;2023-02-19T05:23:18;161202.44;;;9.95;58.23
42945;BME280;28584;42.636;23.294;2023-02-19T05:25:44;161219.78;;;10.01;58.01
42945;BME280;28584;42.636;23.294;2023-02-19T05:28:10;161210.41;;;9.98;58.13
42945;BME280;28584;42.636;23.294;2023-02-19T05:30:46;161182.41;;;9.87;57.99
42945;BME280;28584;42.636;23.294;2023-02-19T05:33:12;161165.00;;;9.81;58.15
42945;BME280;28584;42.636;23.294;2023-02-19T05:35:51;161177.03;;;9.85;57.72
42945;BME280;28584;42.636;23.294;2023-02-19T05:38:17;161165.00;;;9.81;57.96
42945;BME280;28584;42.636;23.294;2023-02-19T05:40:43;161151.69;;;9.76;58.18
42945;BME280;28584;42.636;23.294;2023-02-19T05:43:10;161159.69;;;9.79;58.36
42945;BME280;28584;42.636;23.294;2023-02-19T05:45:36;161182.41;;;9.87;58.48
42945;BME280;28584;42.636;23.294;2023-02-19T05:48:02;161199.75;;;9.94;58.53
42945;BME280;28584;42.636;23.294;2023-02-19T05:50:29;161183.75;;;9.88;58.61
42945;BME280;28584;42.636;23.294;2023-02-19T05:52:55;161206.41;;;9.96;58.36
42945;BME280;28584;42.636;23.294;2023-02-19T05:55:20;161214.41;;;9.99;58.29
42945;BME280;28584;42.636;23.294;2023-02-19T05:57:47;161237.16;;;10.08;57.83
42945;BME280;28584;42.636;23.294;2023-02-19T06:00:15;161246.56;;;10.11;57.73
42945;BME280;28584;42.636;23.294;2023-02-19T06:02:41;161295.97;;;10.30;57.01
42945;BME280;28584;42.636;23.294;2023-02-19T06:05:07;161315.97;;;10.37;56.58
42945;BME280;28584;42.636;23.294;2023-02-19T06:07:33;161310.66;;;10.35;56.65
42945;BME280;28584;42.636;23.294;2023-02-19T06:09:59;161310.66;;;10.35;56.71
42945;BME280;28584;42.636;23.294;2023-02-19T06:12:24;161275.91;;;10.22;56.87
42945;BME280;28584;42.636;23.294;2023-02-19T06:14:50;161257.22;;;10.15;57.00
42945;BME280;28584;42.636;23.294;2023-02-19T06:17:15;161254.56;;;10.14;57.19
42945;BME280;28584;42.636;23.294;2023-02-19T06:19:41;161235.88;;;10.07;57.21
42945;BME280;28584;42.636;23.294;2023-02-19T06:22:07;161245.19;;;10.11;57.19
42945;BME280;28584;42.636;23.294;2023-02-19T06:24:32;161251.84;;;10.13;57.25
42945;BME280;28584;42.636;23.294;2023-02-19T06:26:58;161271.91;;;10.21;57.13
42945;BME280;28584;42.636;23.294;2023-02-19T06:29:23;161285.28;;;10.26;56.49
42945;BME280;28584;42.636;23.294;2023-02-19T06:31:49;161283.94;;;10.25;56.67
42945;BME280;28584;42.636;23.294;2023-02-19T06:34:15;161277.28;;;10.23;56.60
42945;BME280;28584;42.636;23.294;2023-02-19T06:36:40;161286.59;;;10.26;56.33
42945;BME280;28584;42.636;23.294;2023-02-19T06:39:06;161310.66;;;10.35;56.14
42945;BME280;28584;42.636;23.294;2023-02-19T06:41:32;161318.69;;;10.38;56.08
42945;BME280;28584;42.636;23.294;2023-02-19T06:43:57;161366.75;;;10.56;55.62
42945;BME280;28584;42.636;23.294;2023-02-19T06:46:23;161416.19;;;10.75;55.44
42945;BME280;28584;42.636;23.294;2023-02-19T06:48:49;161433.56;;;10.81;55.08
42945;BME280;28584;42.636;23.294;2023-02-19T06:51:16;161433.56;;;10.81;54.51
42945;BME280;28584;42.636;23.294;2023-02-19T06:53:48;161476.34;;;10.97;54.29
42945;BME280;28584;42.636;23.294;2023-02-19T06:58:49;161580.56;;;11.37;53.33
42945;BME280;28584;42.636;23.294;2023-02-19T07:01:15;161587.25;;;11.39;53.27
42945;BME280;28584;42.636;23.294;2023-02-19T07:03:40;161620.66;;;11.52;52.98
42945;BME280;28584;42.636;23.294;2023-02-19T07:06:06;161634.06;;;11.57;52.80
42945;BME280;28584;42.636;23.294;2023-02-19T07:08:31;161627.38;;;11.54;52.65
42945;BME280;28584;42.636;23.294;2023-02-19T07:10:57;161671.53;;;11.71;52.61
42945;BME280;28584;42.636;23.294;2023-02-19T07:13:24;161730.38;;;11.93;52.21
42945;BME280;28584;42.636;23.294;2023-02-19T07:15:51;161769.16;;;12.07;52.13
42945;BME280;28584;42.636;23.294;2023-02-19T07:18:16;161749.09;;;12.00;51.68
42945;BME280;28584;42.636;23.294;2023-02-19T07:20:42;161795.91;;;12.17;51.73
42945;BME280;28584;42.636;23.294;2023-02-19T07:23:08;161845.44;;;12.36;50.90
42945;BME280;28584;42.636;23.294;2023-02-19T07:25:33;161910.94;;;12.60;51.02
42945;BME280;28584;42.636;23.294;2023-02-19T07:27:59;161920.34;;;12.64;50.31
42945;BME280;28584;42.636;23.294;2023-02-19T07:30:24;161980.56;;;12.86;50.27
42945;BME280;28584;42.636;23.294;2023-02-19T07:32:49;162083.66;;;13.25;49.30
42945;BME280;28584;42.636;23.294;2023-02-19T07:35:15;162107.75;;;13.34;49.14
42945;BME280;28584;42.636;23.294;2023-02-19T07:37:40;162157.31;;;13.52;48.97
42945;BME280;28584;42.636;23.294;2023-02-19T07:40:06;162051.53;;;13.13;48.86
42945;BME280;28584;42.636;23.294;2023-02-19T07:42:31;162099.72;;;13.31;48.91
42945;BME280;28584;42.636;23.294;2023-02-19T07:44:57;162091.69;;;13.28;48.38
42945;BME280;28584;42.636;23.294;2023-02-19T07:47:22;162020.75;;;13.01;48.90
42945;BME280;28584;42.636;23.294;2023-02-19T07:49:48;162087.66;;;13.26;49.34
42945;BME280;28584;42.636;23.294;2023-02-19T07:52:13;162226.91;;;13.78;48.95
42945;BME280;28584;42.636;23.294;2023-02-19T07:54:39;162301.91;;;14.07;47.81
42945;BME280;28584;42.636;23.294;2023-02-19T07:57:04;162244.34;;;13.85;47.86
42945;BME280;28584;42.636;23.294;2023-02-19T07:59:29;162210.88;;;13.72;47.87
42945;BME280;28584;42.636;23.294;2023-02-19T08:01:55;162224.25;;;13.77;47.64
42945;BME280;28584;42.636;23.294;2023-02-19T08:04:39;162259.09;;;13.91;47.71
42945;BME280;28584;42.636;23.294;2023-02-19T08:07:04;162292.56;;;14.03;47.39
42945;BME280;28584;42.636;23.294;2023-02-19T08:09:30;162208.16;;;13.71;47.48
42945;BME280;28584;42.636;23.294;2023-02-19T08:11:56;162201.47;;;13.69;47.78
42945;BME280;28584;42.636;23.294;2023-02-19T08:14:50;162247.03;;;13.86;48.07
42945;BME280;28584;42.636;23.294;2023-02-19T08:17:16;162244.34;;;13.85;47.90
42945;BME280;28584;42.636;23.294;2023-02-19T08:19:41;162236.31;;;13.82;47.96
42945;BME280;28584;42.636;23.294;2023-02-19T08:22:06;162075.59;;;13.22;48.40
42945;BME280;28584;42.636;23.294;2023-02-19T08:24:32;162051.53;;;13.13;49.43
42945;BME280;28584;42.636;23.294;2023-02-19T08:26:58;162129.16;;;13.42;49.66
42945;BME280;28584;42.636;23.294;2023-02-19T08:29:23;162143.88;;;13.47;49.17
42945;BME280;28584;42.636;23.294;2023-02-19T08:31:49;162098.38;;;13.30;49.81
42945;BME280;28584;42.636;23.294;2023-02-19T08:34:14;162015.38;;;12.99;50.24
42945;BME280;28584;42.636;23.294;2023-02-19T08:36:39;162031.44;;;13.05;49.90
42945;BME280;28584;42.636;23.294;2023-02-19T08:39:05;162043.50;;;13.10;49.93
42945;BME280;28584;42.636;23.294;2023-02-19T08:41:30;162051.53;;;13.13;49.98
42945;BME280;28584;42.636;23.294;2023-02-19T08:43:56;162066.25;;;13.18;49.42
42945;BME280;28584;42.636;23.294;2023-02-19T08:46:21;162141.22;;;13.46;49.38
42945;BME280;28584;42.636;23.294;2023-02-19T08:48:47;162070.28;;;13.20;49.21
42945;BME280;28584;42.636;23.294;2023-02-19T08:51:12;162117.09;;;13.37;49.45
42945;BME280;28584;42.636;23.294;2023-02-19T08:53:39;162143.88;;;13.47;48.79
42945;BME280;28584;42.636;23.294;2023-02-19T08:56:10;162133.19;;;13.43;48.81
42945;BME280;28584;42.636;23.294;2023-02-19T08:58:37;162089.03;;;13.27;49.01
42945;BME280;28584;42.636;23.294;2023-02-19T09:01:07;162043.50;;;13.10;49.34
42945;BME280;28584;42.636;23.294;2023-02-19T09:03:32;162039.47;;;13.08;50.37
42945;BME280;28584;42.636;23.294;2023-02-19T09:05:57;162066.25;;;13.18;51.13
42945;BME280;28584;42.636;23.294;2023-02-19T09:08:24;162087.66;;;13.26;50.82
42945;BME280;28584;42.636;23.294;2023-02-19T09:11:05;162083.66;;;13.25;51.18
42945;BME280;28584;42.636;23.294;2023-02-19T09:13:32;162004.63;;;12.95;52.01
42945;BME280;28584;42.636;23.294;2023-02-19T09:15:57;161923.00;;;12.65;52.36
42945;BME280;28584;42.636;23.294;2023-02-19T09:18:24;161972.53;;;12.83;52.41
42945;BME280;28584;42.636;23.294;2023-02-19T09:20:50;162034.09;;;13.06;52.12
42945;BME280;28584;42.636;23.294;2023-02-19T09:23:15;161996.59;;;12.92;51.72
42945;BME280;28584;42.636;23.294;2023-02-19T09:25:40;161957.81;;;12.78;52.16
42945;BME280;28584;42.636;23.294;2023-02-19T09:28:06;161968.50;;;12.82;52.33
42945;BME280;28584;42.636;23.294;2023-02-19T09:30:31;162007.34;;;12.96;51.96
42945;BME280;28584;42.636;23.294;2023-02-19T09:32:57;162035.47;;;13.07;51.35
42945;BME280;28584;42.636;23.294;2023-02-19T09:35:22;162014.06;;;12.99;50.86
42945;BME280;28584;42.636;23.294;2023-02-19T09:37:48;162005.97;;;12.96;50.77
42945;BME280;28584;42.636;23.294;2023-02-19T09:40:13;161973.84;;;12.84;50.83
42945;BME280;28584;42.636;23.294;2023-02-19T09:42:41;161987.25;;;12.89;50.83
42945;BME280;28584;42.636;23.294;2023-02-19T09:45:12;161960.47;;;12.79;50.44
42945;BME280;28584;42.636;23.294;2023-02-19T09:47:39;161980.56;;;12.86;50.35
42945;BME280;28584;42.636;23.294;2023-02-19T09:50:07;162054.19;;;13.14;49.83
42945;BME280;28584;42.636;23.294;2023-02-19T09:52:36;162068.94;;;13.19;50.05
42945;BME280;28584;42.636;23.294;2023-02-19T09:55:16;162086.34;;;13.26;49.97
42945;BME280;28584;42.636;23.294;2023-02-19T09:57:43;162126.50;;;13.41;49.64
42945;BME280;28584;42.636;23.294;2023-02-19T10:02:35;162196.09;;;13.67;49.41
42945;BME280;28584;42.636;23.294;2023-02-19T10:05:01;162159.97;;;13.53;48.76
42945;BME280;28584;42.636;23.294;2023-02-19T10:07:36;162197.47;;;13.67;48.73
42945;BME280;28584;42.636;23.294;2023-02-19T10:12:40;162236.31;;;13.82;48.34
42945;BME280;28584;42.636;23.294;2023-02-19T10:15:15;162228.28;;;13.79;49.02
42945;BME280;28584;42.636;23.294;2023-02-19T10:17:41;162263.09;;;13.92;48.31
42945;BME280;28584;42.636;23.294;2023-02-19T10:20:14;162307.28;;;14.09;48.50
42945;BME280;28584;42.636;23.294;2023-02-19T10:22:40;162295.22;;;14.04;48.12
42945;BME280;28584;42.636;23.294;2023-02-19T10:25:05;162225.59;;;13.78;47.93
42945;BME280;28584;42.636;23.294;2023-02-19T10:27:31;162232.28;;;13.80;48.03
42945;BME280;28584;42.636;23.294;2023-02-19T10:29:57;162228.28;;;13.79;47.83
42945;BME280;28584;42.636;23.294;2023-02-19T10:32:25;162292.56;;;14.03;47.52
42945;BME280;28584;42.636;23.294;2023-02-19T10:37:44;162358.22;;;14.28;47.23
42945;BME280;28584;42.636;23.294;2023-02-19T10:40:22;162399.75;;;14.43;47.18
42945;BME280;28584;42.636;23.294;2023-02-19T10:43:01;162332.72;;;14.18;47.17
42945;BME280;28584;42.636;23.294;2023-02-19T10:45:38;162351.53;;;14.25;47.25
42945;BME280;28584;42.636;23.294;2023-02-19T10:48:05;162318.00;;;14.13;47.47
42945;BME280;28584;42.636;23.294;2023-02-19T10:50:35;162311.31;;;14.10;47.59
42945;BME280;28584;42.636;23.294;2023-02-19T10:53:20;162291.19;;;14.03;47.67
42945;BME280;28584;42.636;23.294;2023-02-19T10:56:12;162376.97;;;14.35;47.67
42945;BME280;28584;42.636;23.294;2023-02-19T10:58:38;162354.19;;;14.26;47.22
42945;BME280;28584;42.636;23.294;2023-02-19T11:01:11;162378.34;;;14.35;47.59
42945;BME280;28584;42.636;23.294;2023-02-19T11:03:37;162397.09;;;14.42;47.15
42945;BME280;28584;42.636;23.294;2023-02-19T11:06:04;162417.22;;;14.50;46.99
42945;BME280;28584;42.636;23.294;2023-02-19T11:08:46;162488.22;;;14.76;46.76
42945;BME280;28584;42.636;23.294;2023-02-19T11:11:34;162549.91;;;14.99;46.24
42945;BME280;28584;42.636;23.294;2023-02-19T11:14:12;162477.50;;;14.72;46.13
42945;BME280;28584;42.636;23.294;2023-02-19T11:16:47;162549.91;;;14.99;45.74
42945;BME280;28584;42.636;23.294;2023-02-19T11:19:40;162578.00;;;15.10;45.54
42945;BME280;28584;42.636;23.294;2023-02-19T11:22:26;162548.53;;;14.99;45.40
42945;BME280;28584;42.636;23.294;2023-02-19T11:24:54;162461.41;;;14.66;45.42
42945;BME280;28584;42.636;23.294;2023-02-19T11:27:22;162545.88;;;14.98;45.71
42945;BME280;28584;42.636;23.294;2023-02-19T11:29:47;162587.41;;;15.13;45.73
42945;BME280;28584;42.636;23.294;2023-02-19T11:34:45;162646.41;;;15.35;45.15
42945;BME280;28584;42.636;23.294;2023-02-19T11:37:12;162677.28;;;15.47;44.51
42945;BME280;28584;42.636;23.294;2023-02-19T11:39:43;162684.00;;;15.49;44.88
42945;BME280;28584;42.636;23.294;2023-02-19T11:45:54;162654.50;;;15.38;45.46
42945;BME280;28584;42.636;23.294;2023-02-19T11:50:45;162619.56;;;15.25;45.68
42945;BME280;28584;42.636;23.294;2023-02-19T11:56:20;162602.16;;;15.19;45.20
42945;BME280;28584;42.636;23.294;2023-02-19T12:04:25;162561.91;;;15.04;45.45
42945;BME280;28584;42.636;23.294;2023-02-19T12:10:22;162631.66;;;15.30;45.44
42945;BME280;28584;42.636;23.294;2023-02-19T12:13:32;162626.25;;;15.28;44.95
42945;BME280;28584;42.636;23.294;2023-02-19T12:32:14;162608.84;;;15.21;45.00
42945;BME280;28584;42.636;23.294;2023-02-19T12:37:37;162606.19;;;15.20;44.65
42945;BME280;28584;42.636;23.294;2023-02-19T12:40:27;162604.81;;;15.20;44.86
42945;BME280;28584;42.636;23.294;2023-02-19T12:45:46;162620.94;;;15.26;44.92
42945;BME280;28584;42.636;23.294;2023-02-19T12:50:55;162620.94;;;15.26;44.45
42945;BME280;28584;42.636;23.294;2023-02-19T12:56:00;162608.84;;;15.21;44.56
42945;BME280;28584;42.636;23.294;2023-02-19T12:58:36;162623.59;;;15.27;44.73
42945;BME280;28584;42.636;23.294;2023-02-19T13:01:04;162619.56;;;15.25;44.01
42945;BME280;28584;42.636;23.294;2023-02-19T13:03:34;162616.91;;;15.24;44.64
42945;BME280;28584;42.636;23.294;2023-02-19T13:06:20;162608.84;;;15.21;44.68
42945;BME280;28584;42.636;23.294;2023-02-19T13:08:55;162598.13;;;15.17;44.61
42945;BME280;28584;42.636;23.294;2023-02-19T13:11:26;162603.47;;;15.19;44.71
42945;BME280;28584;42.636;23.294;2023-02-19T13:13:57;162599.44;;;15.18;44.60
42945;BME280;28584;42.636;23.294;2023-02-19T13:16:24;162595.41;;;15.16;44.41
42945;BME280;28584;42.636;23.294;2023-02-19T13:19:00;162598.13;;;15.17;44.38
42945;BME280;28584;42.636;23.294;2023-02-19T13:21:29;162583.41;;;15.12;44.13
42945;BME280;28584;42.636;23.294;2023-02-19T13:24:22;162592.75;;;15.15;44.09
42945;BME280;28584;42.636;23.294;2023-02-19T13:38:02;162658.53;;;15.40;43.87
42945;BME280;28584;42.636;23.294;2023-02-19T13:40:38;162665.22;;;15.42;43.74
42945;BME280;28584;42.636;23.294;2023-02-19T13:43:23;162675.94;;;15.46;43.49
42945;BME280;28584;42.636;23.294;2023-02-19T13:45:55;162682.63;;;15.49;43.53
42945;BME280;28584;42.636;23.294;2023-02-19T13:48:31;162657.16;;;15.39;43.46
42945;BME280;28584;42.636;23.294;2023-02-19T13:56:36;162599.44;;;15.18;43.57
42945;BME280;28584;42.636;23.294;2023-02-19T14:04:22;162578.00;;;15.10;44.97
42945;BME280;28584;42.636;23.294;2023-02-19T14:17:26;162548.53;;;14.99;46.79
42945;BME280;28584;42.636;23.294;2023-02-19T14:27:49;162529.78;;;14.92;46.91
42945;BME280;28584;42.636;23.294;2023-02-19T14:30:16;162509.66;;;14.84;47.69
42945;BME280;28584;42.636;23.294;2023-02-19T14:32:42;162533.78;;;14.93;47.60
42945;BME280;28584;42.636;23.294;2023-02-19T14:35:31;162612.88;;;15.23;46.10
42945;BME280;28584;42.636;23.294;2023-02-19T14:37:58;162641.00;;;15.33;46.42
42945;BME280;28584;42.636;23.294;2023-02-19T14:40:37;162702.75;;;15.56;46.62
42945;BME280;28584;42.636;23.294;2023-02-19T14:43:07;162742.97;;;15.71;46.53
42945;BME280;28584;42.636;23.294;2023-02-19T14:45:48;162706.78;;;15.58;46.87
42945;BME280;28584;42.636;23.294;2023-02-19T14:48:19;162706.78;;;15.58;46.64
42945;BME280;28584;42.636;23.294;2023-02-19T14:50:48;162688.00;;;15.51;46.47
42945;BME280;28584;42.636;23.294;2023-02-19T14:53:15;162659.84;;;15.40;46.56
42945;BME280;28584;42.636;23.294;2023-02-19T14:55:41;162718.88;;;15.62;45.02
42945;BME280;28584;42.636;23.294;2023-02-19T14:58:21;162689.38;;;15.51;45.55
42945;BME280;28584;42.636;23.294;2023-02-19T15:00:47;162702.75;;;15.56;46.43
42945;BME280;28584;42.636;23.294;2023-02-19T15:06:19;162611.53;;;15.22;45.28
42945;BME280;28584;42.636;23.294;2023-02-19T15:08:50;162616.91;;;15.24;46.52